Time;durP1;ratioP1;P1;durP2;ratioP2;P2;SDS_P1;SDS_P2;PMS_P1;PMS_P2;Temp;Humidity;BMP_temperature;BMP_pressure;BME280_temperature;BME280_humidity;BME280_pressure;Samples;Min_cycle;Max_cycle;Signal;HPM_P1;HPM_P2
2023/12/07 00:00:35;;;;;;;11.70;5.37;;;3.20;1.00;;;;;;5010471;28;20396;-69
2023/12/07 00:03:00;;;;;;;12.63;5.40;;;3.20;1.00;;;;;;5011483;28;20397;-69
2023/12/07 00:05:26;;;;;;;12.13;4.97;;;3.20;1.00;;;;;;4993320;28;20403;-69
2023/12/07 00:07:51;;;;;;;11.95;4.82;;;3.30;1.00;;;;;;5011106;28;20423;-69
2023/12/07 00:10:17;;;;;;;11.60;5.03;;;3.30;1.00;;;;;;5010155;28;20397;-69
2023/12/07 00:12:43;;;;;;;12.73;4.88;;;3.30;1.00;;;;;;5026435;28;20387;-69
2023/12/07 00:15:08;;;;;;;12.53;4.80;;;3.30;1.00;;;;;;5024982;28;20416;-69
2023/12/07 00:17:34;;;;;;;9.93;4.40;;;3.40;1.00;;;;;;5010905;28;20397;-69
2023/12/07 00:19:59;;;;;;;11.23;5.80;;;3.50;1.00;;;;;;5011089;28;20403;-69
2023/12/07 00:22:26;;;;;;;13.35;5.40;;;3.50;1.00;;;;;;5020623;28;20476;-69
2023/12/07 00:24:52;;;;;;;11.75;4.80;;;3.50;1.00;;;;;;5010054;28;20447;-69
2023/12/07 00:27:17;;;;;;;11.90;5.00;;;3.50;1.00;;;;;;5023262;28;20811;-69
2023/12/07 00:29:43;;;;;;;14.10;4.80;;;3.50;1.00;;;;;;5011091;28;20389;-70
2023/12/07 00:32:08;;;;;;;12.90;4.77;;;3.40;1.00;;;;;;5029286;28;20445;-69
2023/12/07 00:34:34;;;;;;;10.13;4.07;;;3.50;1.00;;;;;;5011047;28;20484;-69
2023/12/07 00:36:59;;;;;;;12.63;5.00;;;3.40;1.00;;;;;;5017859;28;20411;-69
2023/12/07 00:39:25;;;;;;;11.57;4.17;;;3.40;1.00;;;;;;4999580;28;20411;-69
2023/12/07 00:41:50;;;;;;;9.75;4.10;;;3.50;1.00;;;;;;5023252;28;20487;-69
2023/12/07 00:44:16;;;;;;;13.37;4.00;;;3.50;1.00;;;;;;5008932;28;20477;-69
2023/12/07 00:46:41;;;;;;;11.50;5.32;;;3.50;1.00;;;;;;5019886;28;20752;-69
2023/12/07 00:49:07;;;;;;;10.40;4.40;;;3.60;1.00;;;;;;5017167;28;20410;-69
2023/12/07 00:51:32;;;;;;;11.10;4.87;;;3.60;1.00;;;;;;5028744;28;20379;-69
2023/12/07 00:53:58;;;;;;;12.53;5.60;;;3.70;1.00;;;;;;5027169;28;20407;-69
2023/12/07 00:56:24;;;;;;;10.32;4.15;;;3.70;1.00;;;;;;5009243;28;20442;-69
2023/12/07 00:58:50;;;;;;;10.85;4.45;;;3.80;1.00;;;;;;5012078;28;20393;-69
2023/12/07 01:01:16;;;;;;;11.57;4.47;;;3.70;1.00;;;;;;5018409;28;20497;-69
2023/12/07 01:03:41;;;;;;;10.25;4.20;;;3.80;1.00;;;;;;5028750;28;20929;-69
2023/12/07 01:06:07;;;;;;;11.50;4.87;;;3.80;1.00;;;;;;5017282;28;20919;-69
2023/12/07 01:08:33;;;;;;;11.32;4.32;;;3.80;1.00;;;;;;5022164;28;20431;-69
2023/12/07 01:10:58;;;;;;;10.13;4.32;;;3.90;1.00;;;;;;5023814;28;20395;-69
2023/12/07 01:13:24;;;;;;;11.03;4.60;;;4.00;1.00;;;;;;5024294;28;20399;-68
2023/12/07 01:15:50;;;;;;;10.40;4.07;;;4.10;1.00;;;;;;5013800;28;20404;-68
2023/12/07 01:18:16;;;;;;;11.20;3.60;;;4.10;1.00;;;;;;5009386;28;20483;-69
2023/12/07 01:20:41;;;;;;;10.20;3.33;;;4.10;1.00;;;;;;5012624;28;20828;-69
2023/12/07 01:23:10;;;;;;;10.40;4.40;;;4.20;1.00;;;;;;5009955;28;20432;-69
2023/12/07 01:25:36;;;;;;;12.73;4.68;;;4.20;1.00;;;;;;5009532;28;20405;-69
2023/12/07 01:28:01;;;;;;;11.18;4.10;;;4.20;1.00;;;;;;5022896;28;20438;-69
2023/12/07 01:30:27;;;;;;;8.70;4.03;;;4.20;1.00;;;;;;5025784;28;20383;-69
2023/12/07 01:32:53;;;;;;;10.55;4.20;;;4.30;1.00;;;;;;5009893;28;20893;-69
2023/12/07 01:35:18;;;;;;;11.30;4.30;;;4.30;1.00;;;;;;5018965;28;20394;-69
2023/12/07 01:37:44;;;;;;;11.50;4.27;;;4.40;1.00;;;;;;5024262;28;20435;-69
2023/12/07 01:40:10;;;;;;;9.90;3.53;;;4.40;1.00;;;;;;5015059;28;20927;-69
2023/12/07 01:42:37;;;;;;;9.93;3.83;;;4.40;1.00;;;;;;5023933;28;20479;-70
2023/12/07 01:45:03;;;;;;;9.52;4.00;;;4.50;1.00;;;;;;5016874;28;20939;-70
2023/12/07 01:47:30;;;;;;;11.90;4.50;;;4.50;1.00;;;;;;5023631;28;20559;-70
2023/12/07 01:49:56;;;;;;;10.95;3.78;;;4.50;1.00;;;;;;5024498;28;20901;-71
2023/12/07 01:52:23;;;;;;;10.93;4.10;;;4.60;1.00;;;;;;5013675;28;20435;-70
2023/12/07 01:54:48;;;;;;;11.00;4.17;;;4.50;1.00;;;;;;5009893;28;20768;-70
2023/12/07 01:57:14;;;;;;;11.68;4.10;;;4.60;1.00;;;;;;5022942;28;20397;-70
2023/12/07 01:59:40;;;;;;;10.35;4.00;;;4.50;1.00;;;;;;5008353;28;20401;-70
2023/12/07 02:02:05;;;;;;;11.37;4.70;;;4.60;1.00;;;;;;5009034;28;20479;-70
2023/12/07 02:04:31;;;;;;;10.18;4.10;;;4.60;1.00;;;;;;5018770;28;20416;-70
2023/12/07 02:06:59;;;;;;;9.87;3.60;;;4.60;1.00;;;;;;5008632;28;20837;-70
2023/12/07 02:09:25;;;;;;;10.52;3.90;;;4.60;1.00;;;;;;5023616;28;20432;-69
2023/12/07 02:11:50;;;;;;;10.50;3.83;;;4.60;1.00;;;;;;5008376;28;20435;-69
2023/12/07 02:14:18;;;;;;;9.57;3.20;;;4.50;1.00;;;;;;5011999;28;20511;-69
2023/12/07 02:16:48;;;;;;;10.60;4.03;;;4.40;1.00;;;;;;5012385;28;20389;-69
2023/12/07 02:19:49;;;;;;;8.88;3.30;;;4.30;1.00;;;;;;5013253;28;20389;-69
2023/12/07 02:22:25;;;;;;;12.67;4.13;;;4.20;1.00;;;;;;5027978;28;20763;-69
2023/12/07 02:25:07;;;;;;;8.10;3.30;;;4.10;1.00;;;;;;5031644;28;20383;-69
2023/12/07 02:27:44;;;;;;;10.93;3.78;;;4.10;1.00;;;;;;5031793;28;20459;-69
2023/12/07 02:30:11;;;;;;;8.70;3.17;;;4.10;1.00;;;;;;5028576;28;20410;-69
2023/12/07 02:32:38;;;;;;;8.63;3.42;;;4.10;1.00;;;;;;5012760;28;20396;-70
2023/12/07 02:35:05;;;;;;;9.60;3.90;;;4.00;1.00;;;;;;5022562;28;20387;-70
2023/12/07 02:37:39;;;;;;;10.52;3.95;;;3.90;1.00;;;;;;5030276;28;20968;-70
2023/12/07 02:40:14;;;;;;;9.67;3.97;;;3.80;1.00;;;;;;5031774;28;20379;-70
2023/12/07 02:42:42;;;;;;;14.50;4.28;;;3.70;1.00;;;;;;5031193;28;20425;-69
2023/12/07 02:45:10;;;;;;;8.70;3.40;;;3.60;1.00;;;;;;5027652;28;20893;-69
2023/12/07 02:47:36;;;;;;;11.55;4.60;;;3.60;1.00;;;;;;5020125;28;20429;-69
2023/12/07 02:50:04;;;;;;;12.70;4.38;;;3.50;1.00;;;;;;5011872;28;20385;-69
2023/12/07 02:52:30;;;;;;;12.53;4.00;;;3.60;1.00;;;;;;5027857;28;20395;-70
2023/12/07 02:54:55;;;;;;;9.85;3.90;;;3.60;1.00;;;;;;5018212;28;20806;-69
2023/12/07 02:57:21;;;;;;;16.67;4.40;;;3.60;1.00;;;;;;5015057;28;20796;-69
2023/12/07 02:59:46;;;;;;;8.70;3.33;;;3.60;1.00;;;;;;5013626;28;20968;-69
2023/12/07 03:02:11;;;;;;;12.97;5.00;;;3.50;1.00;;;;;;5031444;28;20440;-69
2023/12/07 03:04:37;;;;;;;10.50;2.80;;;3.50;1.00;;;;;;5031978;28;20384;-69
2023/12/07 03:07:03;;;;;;;12.17;4.20;;;3.50;1.00;;;;;;5030974;28;20418;-69
2023/12/07 03:09:28;;;;;;;11.50;4.15;;;3.30;1.00;;;;;;5031135;28;20407;-69
2023/12/07 03:11:54;;;;;;;10.93;4.20;;;3.30;1.00;;;;;;5028322;28;20521;-69
2023/12/07 03:14:19;;;;;;;11.15;4.60;;;3.30;1.00;;;;;;5026277;28;20928;-69
2023/12/07 03:16:46;;;;;;;10.03;3.60;;;3.30;1.00;;;;;;5010801;28;20392;-70
2023/12/07 03:19:11;;;;;;;8.23;3.03;;;3.30;1.00;;;;;;5011123;28;20403;-70
2023/12/07 03:21:41;;;;;;;8.50;3.93;;;3.10;1.00;;;;;;5011405;28;20393;-70
2023/12/07 03:24:08;;;;;;;10.25;4.15;;;3.10;1.00;;;;;;5010928;28;20420;-70
2023/12/07 03:26:34;;;;;;;12.60;4.53;;;3.00;1.00;;;;;;5011144;28;20918;-70
2023/12/07 03:28:59;;;;;;;9.03;3.50;;;3.00;1.00;;;;;;5010622;28;20400;-69
2023/12/07 03:31:25;;;;;;;9.25;3.95;;;3.00;1.00;;;;;;5010569;28;20401;-69
2023/12/07 03:33:50;;;;;;;10.30;4.60;;;3.00;1.00;;;;;;5010708;28;20393;-69
2023/12/07 03:36:16;;;;;;;11.68;3.80;;;2.80;1.00;;;;;;5010394;28;20492;-69
2023/12/07 03:38:42;;;;;;;11.50;4.90;;;2.60;1.00;;;;;;5010732;28;20417;-69
2023/12/07 03:41:08;;;;;;;10.47;4.40;;;2.40;1.00;;;;;;5010651;28;20916;-69
2023/12/07 03:43:33;;;;;;;9.20;3.75;;;2.40;1.00;;;;;;5010914;28;20389;-69
2023/12/07 03:45:59;;;;;;;11.23;4.50;;;2.30;1.00;;;;;;5010457;28;20401;-69
2023/12/07 03:48:24;;;;;;;12.35;5.18;;;2.30;1.00;;;;;;5010349;28;20531;-69
2023/12/07 03:50:50;;;;;;;9.87;3.40;;;2.30;1.00;;;;;;5010526;28;20405;-69
2023/12/07 03:53:15;;;;;;;11.20;4.63;;;2.30;1.00;;;;;;5010400;28;20435;-69
2023/12/07 03:55:41;;;;;;;11.30;3.70;;;2.20;1.00;;;;;;5009889;28;20413;-69
2023/12/07 03:58:07;;;;;;;11.15;4.53;;;2.30;1.00;;;;;;4993197;28;20408;-69
2023/12/07 04:00:32;;;;;;;9.73;3.40;;;2.60;1.00;;;;;;5010070;28;20424;-70
2023/12/07 04:02:58;;;;;;;12.83;4.50;;;2.70;1.00;;;;;;5010521;28;20400;-69
2023/12/07 04:05:24;;;;;;;9.45;4.40;;;2.60;1.00;;;;;;5010267;28;20389;-69
2023/12/07 04:07:49;;;;;;;11.93;4.70;;;2.60;1.00;;;;;;5010100;28;20412;-69
2023/12/07 04:10:15;;;;;;;9.17;4.50;;;2.70;1.00;;;;;;5009729;28;20396;-69
2023/12/07 04:12:41;;;;;;;10.50;4.07;;;2.70;1.00;;;;;;5010038;28;20530;-69
2023/12/07 04:15:07;;;;;;;10.30;4.20;;;2.60;1.00;;;;;;5010278;28;20464;-69
2023/12/07 04:17:33;;;;;;;11.07;4.68;;;2.50;1.00;;;;;;5009567;28;20395;-70
2023/12/07 04:19:58;;;;;;;11.10;4.30;;;2.40;1.00;;;;;;5009928;28;20942;-69
2023/12/07 04:22:24;;;;;;;9.65;4.18;;;2.50;1.00;;;;;;5009878;28;20393;-69
2023/12/07 04:24:49;;;;;;;11.77;3.93;;;2.50;1.00;;;;;;5009738;28;20745;-69
2023/12/07 04:27:15;;;;;;;12.00;4.00;;;2.50;1.00;;;;;;5009545;28;20478;-69
2023/12/07 04:29:41;;;;;;;10.87;4.17;;;2.40;1.00;;;;;;5009869;28;20385;-69
2023/12/07 04:32:07;;;;;;;10.40;4.40;;;2.40;1.00;;;;;;4996356;28;20415;-70
2023/12/07 04:34:32;;;;;;;10.98;4.15;;;2.30;1.00;;;;;;4990228;28;20779;-70
2023/12/07 04:36:58;;;;;;;11.03;4.13;;;2.30;1.00;;;;;;5002759;28;20454;-70
2023/12/07 04:39:23;;;;;;;9.80;3.75;;;2.20;1.00;;;;;;5014758;28;20389;-69
2023/12/07 04:41:49;;;;;;;11.37;4.13;;;2.30;1.00;;;;;;5006916;28;20409;-69
2023/12/07 04:44:15;;;;;;;12.57;4.50;;;2.30;1.00;;;;;;5000673;28;20397;-69
2023/12/07 04:46:42;;;;;;;11.75;4.93;;;2.40;1.00;;;;;;4997804;28;20831;-69
2023/12/07 04:49:07;;;;;;;9.48;4.03;;;2.30;1.00;;;;;;5003040;28;20415;-69
2023/12/07 04:51:33;;;;;;;13.37;4.40;;;2.30;1.00;;;;;;5001474;28;20393;-70
2023/12/07 04:53:58;;;;;;;12.80;5.22;;;2.30;1.00;;;;;;5028959;28;20418;-69
2023/12/07 04:56:24;;;;;;;11.83;4.50;;;2.20;1.00;;;;;;5029214;28;20395;-69
2023/12/07 04:58:50;;;;;;;10.82;4.32;;;2.30;1.00;;;;;;5028233;28;20391;-70
2023/12/07 05:01:15;;;;;;;13.83;4.67;;;2.40;1.00;;;;;;5028740;28;20445;-70
2023/12/07 05:03:41;;;;;;;13.55;5.00;;;2.60;1.00;;;;;;5029173;28;20475;-70
2023/12/07 05:06:07;;;;;;;10.30;4.50;;;2.70;1.00;;;;;;5029295;28;20894;-69
2023/12/07 05:08:33;;;;;;;14.55;5.20;;;2.70;1.00;;;;;;4992668;28;20419;-69
2023/12/07 05:10:58;;;;;;;11.70;4.80;;;2.70;1.00;;;;;;4990198;28;20416;-69
2023/12/07 05:13:24;;;;;;;12.13;4.93;;;2.60;1.00;;;;;;4988920;28;20549;-69
2023/12/07 05:15:49;;;;;;;12.40;4.77;;;2.50;1.00;;;;;;4988966;28;20418;-69
2023/12/07 05:18:15;;;;;;;11.63;4.75;;;2.40;1.00;;;;;;4989233;28;20505;-69
2023/12/07 05:20:40;;;;;;;13.27;5.27;;;2.20;1.00;;;;;;5001079;28;20424;-70
2023/12/07 05:23:06;;;;;;;10.48;4.55;;;2.10;1.00;;;;;;5002943;28;20429;-69
2023/12/07 05:25:32;;;;;;;10.70;4.57;;;2.10;1.00;;;;;;5007541;28;20965;-69
2023/12/07 05:27:58;;;;;;;10.85;4.75;;;2.10;1.00;;;;;;4992401;28;20432;-69
2023/12/07 05:30:23;;;;;;;11.23;5.07;;;2.00;1.00;;;;;;5010044;28;20407;-69
2023/12/07 05:32:50;;;;;;;11.40;4.95;;;1.90;1.00;;;;;;4998422;28;20501;-69
2023/12/07 05:35:16;;;;;;;10.73;4.47;;;2.00;1.00;;;;;;5001144;28;21222;-69
2023/12/07 05:37:41;;;;;;;10.48;4.38;;;1.90;1.00;;;;;;4988728;28;20442;-69
2023/12/07 05:40:08;;;;;;;12.07;5.00;;;1.90;1.00;;;;;;4989331;28;20406;-70
2023/12/07 05:42:33;;;;;;;12.15;5.88;;;1.90;1.00;;;;;;5000241;28;20466;-71
2023/12/07 05:44:59;;;;;;;13.23;4.90;;;2.00;1.00;;;;;;4996367;28;20407;-70
2023/12/07 05:47:26;;;;;;;12.55;4.47;;;2.00;1.00;;;;;;5013135;28;20418;-70
2023/12/07 05:49:51;;;;;;;11.77;5.10;;;2.00;1.00;;;;;;5030544;28;20397;-70
2023/12/07 05:52:17;;;;;;;14.03;5.00;;;2.10;1.00;;;;;;5011483;28;20830;-70
2023/12/07 05:54:43;;;;;;;9.82;3.92;;;2.00;1.00;;;;;;5010365;28;20775;-70
2023/12/07 05:57:09;;;;;;;13.07;4.68;;;2.00;1.00;;;;;;5012152;28;20396;-70
2023/12/07 05:59:38;;;;;;;10.60;4.97;;;1.90;1.00;;;;;;5011866;28;20487;-70
2023/12/07 06:02:04;;;;;;;10.05;4.60;;;1.80;1.00;;;;;;5007697;28;20422;-70
2023/12/07 06:04:30;;;;;;;10.73;4.43;;;1.80;1.00;;;;;;5010678;28;20475;-70
2023/12/07 06:06:55;;;;;;;12.38;5.13;;;1.70;1.00;;;;;;5008381;28;20404;-70
2023/12/07 06:09:21;;;;;;;12.90;4.60;;;1.70;1.00;;;;;;5011536;28;20400;-70
2023/12/07 06:11:46;;;;;;;11.10;3.83;;;1.70;1.00;;;;;;5010995;28;20407;-70
2023/12/07 06:14:12;;;;;;;12.37;4.93;;;1.80;1.00;;;;;;5007801;28;20943;-70
2023/12/07 06:16:38;;;;;;;12.38;4.70;;;1.80;1.00;;;;;;5011253;28;20526;-70
2023/12/07 06:19:03;;;;;;;11.90;4.73;;;1.70;1.00;;;;;;5012129;28;20761;-70
2023/12/07 06:21:30;;;;;;;14.80;5.10;;;1.70;1.00;;;;;;5010240;28;20404;-70
2023/12/07 06:23:56;;;;;;;13.20;4.88;;;1.60;1.00;;;;;;5010694;28;20739;-70
2023/12/07 06:26:21;;;;;;;12.55;5.05;;;1.60;1.00;;;;;;5011748;28;20407;-76
2023/12/07 06:28:47;;;;;;;8.32;4.13;;;1.50;1.00;;;;;;5011630;28;20417;-70
2023/12/07 06:31:15;;;;;;;14.85;6.63;;;1.60;1.00;;;;;;5010069;28;20784;-75
2023/12/07 06:33:41;;;;;;;13.50;5.50;;;1.70;1.00;;;;;;5011585;28;20956;-70
2023/12/07 06:36:07;;;;;;;14.37;6.20;;;1.80;1.00;;;;;;5010213;28;20546;-70
2023/12/07 06:38:32;;;;;;;11.40;5.07;;;1.70;1.00;;;;;;5009549;28;20531;-70
2023/12/07 06:40:58;;;;;;;12.88;4.30;;;1.80;1.00;;;;;;5010970;28;20495;-70
2023/12/07 06:43:24;;;;;;;13.40;5.40;;;2.00;1.00;;;;;;5011760;28;20479;-70
2023/12/07 06:45:49;;;;;;;15.43;6.30;;;1.90;1.00;;;;;;5011788;28;20412;-70
2023/12/07 06:48:15;;;;;;;11.52;5.88;;;1.90;1.00;;;;;;5011919;28;20416;-70
2023/12/07 06:50:41;;;;;;;11.90;5.87;;;1.80;1.00;;;;;;5011781;28;20401;-70
2023/12/07 06:53:07;;;;;;;12.53;5.03;;;1.70;1.00;;;;;;5012145;28;20464;-70
2023/12/07 06:55:32;;;;;;;12.07;4.70;;;1.70;1.00;;;;;;5011138;28;20535;-70
2023/12/07 06:57:58;;;;;;;11.70;5.73;;;1.60;1.00;;;;;;5011222;28;20888;-69
2023/12/07 07:00:24;;;;;;;16.27;4.77;;;1.60;1.00;;;;;;5010139;28;20483;-70
2023/12/07 07:02:50;;;;;;;12.93;4.80;;;1.40;1.00;;;;;;5011628;28;20389;-70
2023/12/07 07:05:15;;;;;;;13.57;5.00;;;1.40;1.00;;;;;;5009591;28;20421;-70
2023/12/07 07:07:41;;;;;;;10.90;4.32;;;1.50;1.00;;;;;;5008469;28;20923;-69
2023/12/07 07:10:09;;;;;;;12.57;5.27;;;1.80;1.00;;;;;;5013159;28;20411;-70
2023/12/07 07:12:35;;;;;;;10.10;4.70;;;1.80;1.00;;;;;;5010995;28;20397;-70
2023/12/07 07:15:01;;;;;;;12.73;5.13;;;1.80;1.00;;;;;;4991143;28;20450;-70
2023/12/07 07:17:28;;;;;;;12.60;5.88;;;1.80;1.00;;;;;;5011344;28;20444;-70
2023/12/07 07:19:55;;;;;;;12.27;6.10;;;1.80;1.00;;;;;;5011474;28;20393;-70
2023/12/07 07:22:20;;;;;;;12.80;5.30;;;1.80;1.00;;;;;;5011162;28;20458;-70
2023/12/07 07:24:47;;;;;;;13.88;5.30;;;1.80;1.00;;;;;;5010422;28;20397;-70
2023/12/07 07:27:12;;;;;;;13.85;5.30;;;1.70;1.00;;;;;;5011080;28;20397;-70
2023/12/07 07:29:38;;;;;;;12.67;4.60;;;1.70;1.00;;;;;;5011179;28;20408;-70
2023/12/07 07:32:04;;;;;;;15.23;6.07;;;1.70;1.00;;;;;;5011560;28;20425;-70
2023/12/07 07:34:30;;;;;;;11.70;4.72;;;1.70;1.00;;;;;;5011005;28;20393;-70
2023/12/07 07:36:55;;;;;;;15.27;5.13;;;1.70;1.00;;;;;;5010633;28;20417;-70
2023/12/07 07:39:21;;;;;;;9.60;4.30;;;1.80;1.00;;;;;;5010407;28;20385;-70
2023/12/07 07:41:46;;;;;;;12.32;5.05;;;1.90;1.00;;;;;;5011012;28;20471;-70
2023/12/07 07:44:12;;;;;;;12.33;5.40;;;2.00;1.00;;;;;;5010929;28;20756;-70
2023/12/07 07:46:37;;;;;;;12.38;6.10;;;2.10;1.00;;;;;;5011170;28;20396;-70
2023/12/07 07:49:03;;;;;;;12.83;5.60;;;2.30;1.00;;;;;;5003975;28;20426;-70
2023/12/07 07:51:29;;;;;;;14.10;5.97;;;2.50;1.00;;;;;;4990278;28;20394;-70
2023/12/07 07:53:56;;;;;;;13.80;5.63;;;2.50;1.00;;;;;;4989708;28;20444;-70
2023/12/07 07:56:22;;;;;;;10.98;4.80;;;2.60;1.00;;;;;;4991235;28;20383;-70
2023/12/07 07:58:47;;;;;;;16.05;5.50;;;2.50;1.00;;;;;;4990384;28;20424;-70
2023/12/07 08:01:13;;;;;;;14.37;6.40;;;2.40;1.00;;;;;;4989898;28;20391;-70
2023/12/07 08:03:38;;;;;;;14.70;5.88;;;2.40;1.00;;;;;;4990870;28;20429;-70
2023/12/07 08:06:04;;;;;;;19.63;6.97;;;2.50;1.00;;;;;;4991350;28;20418;-70
2023/12/07 08:08:30;;;;;;;20.85;8.50;;;2.60;1.00;;;;;;4990767;28;20422;-70
2023/12/07 08:10:55;;;;;;;16.70;6.90;;;2.60;1.00;;;;;;4990543;28;20902;-70
2023/12/07 08:13:21;;;;;;;25.85;7.80;;;2.60;1.00;;;;;;4990906;28;20391;-70
2023/12/07 08:15:46;;;;;;;15.07;6.43;;;2.70;1.00;;;;;;4998835;28;20483;-70
2023/12/07 08:18:12;;;;;;;19.30;7.00;;;2.80;1.00;;;;;;5010506;28;20385;-70
2023/12/07 08:20:37;;;;;;;17.70;7.23;;;2.90;1.00;;;;;;5010493;28;20402;-70
2023/12/07 08:23:03;;;;;;;15.80;7.05;;;2.90;1.00;;;;;;5009860;28;20396;-70
2023/12/07 08:25:29;;;;;;;17.43;8.50;;;3.10;1.00;;;;;;4992178;28;20430;-70
2023/12/07 08:27:54;;;;;;;17.67;8.20;;;3.30;1.00;;;;;;5010067;28;20494;-70
2023/12/07 08:30:20;;;;;;;18.90;8.80;;;3.40;1.00;;;;;;5009912;28;20486;-70
2023/12/07 08:32:45;;;;;;;13.95;6.80;;;3.50;1.00;;;;;;5009881;28;20427;-70
2023/12/07 08:35:11;;;;;;;18.93;7.60;;;3.60;1.00;;;;;;5009609;28;20459;-70
2023/12/07 08:37:39;;;;;;;20.57;8.33;;;3.60;1.00;;;;;;5009994;28;20407;-70
2023/12/07 08:40:06;;;;;;;18.37;8.67;;;3.70;1.00;;;;;;5010282;28;20393;-70
2023/12/07 08:42:31;;;;;;;13.45;7.15;;;3.90;1.00;;;;;;5009603;28;20424;-71
2023/12/07 08:44:57;;;;;;;23.60;8.53;;;4.10;1.00;;;;;;5009826;28;20432;-70
2023/12/07 08:47:23;;;;;;;22.70;9.20;;;4.60;1.00;;;;;;5009733;28;20887;-70
2023/12/07 08:49:51;;;;;;;20.00;8.70;;;5.50;1.00;;;;;;5008918;28;21282;-68
2023/12/07 08:52:17;;;;;;;18.77;7.60;;;7.10;1.00;;;;;;5009582;28;20396;-70
2023/12/07 08:54:43;;;;;;;16.48;7.32;;;9.00;1.00;;;;;;5009379;28;20387;-70
2023/12/07 08:57:09;;;;;;;17.60;8.18;;;10.60;1.00;;;;;;5009731;28;20473;-71
2023/12/07 08:59:34;;;;;;;14.65;7.20;;;11.60;1.00;;;;;;5010013;28;20397;-71
2023/12/07 09:02:00;;;;;;;15.20;7.40;;;12.10;1.00;;;;;;5009856;28;20425;-70
2023/12/07 09:04:26;;;;;;;14.83;7.60;;;12.10;1.00;;;;;;5009181;28;20395;-70
2023/12/07 09:06:52;;;;;;;13.50;6.60;;;12.30;1.00;;;;;;5009586;28;20419;-70
2023/12/07 09:09:17;;;;;;;13.37;7.30;;;12.30;1.00;;;;;;5009491;28;20433;-70
2023/12/07 09:11:43;;;;;;;16.42;7.03;;;12.50;1.00;;;;;;5009138;28;20392;-70
2023/12/07 09:14:08;;;;;;;20.65;8.63;;;12.90;1.00;;;;;;5009587;28;20897;-69
2023/12/07 09:16:34;;;;;;;15.13;7.13;;;13.10;1.00;;;;;;5009563;28;20938;-70
2023/12/07 09:19:00;;;;;;;14.27;6.47;;;13.20;1.00;;;;;;5009315;28;20385;-70
2023/12/07 09:21:25;;;;;;;15.57;6.93;;;13.30;1.00;;;;;;5008895;28;20408;-70
2023/12/07 09:23:52;;;;;;;16.60;8.10;;;13.60;1.00;;;;;;5008933;28;21187;-69
2023/12/07 09:26:17;;;;;;;15.03;7.33;;;14.70;1.00;;;;;;5009081;28;20444;-69
2023/12/07 09:28:43;;;;;;;14.85;7.55;;;14.80;1.00;;;;;;5009124;28;20455;-69
2023/12/07 09:31:08;;;;;;;15.32;7.13;;;15.10;1.00;;;;;;5008899;28;20476;-69
2023/12/07 09:33:34;;;;;;;17.70;8.23;;;15.30;1.00;;;;;;5009453;28;20450;-69
2023/12/07 09:35:59;;;;;;;15.63;7.30;;;15.70;1.00;;;;;;5009025;28;20479;-69
2023/12/07 09:38:25;;;;;;;14.33;6.93;;;15.80;1.00;;;;;;5008941;28;20413;-69
2023/12/07 09:40:54;;;;;;;16.50;8.10;;;15.80;1.00;;;;;;5009004;28;20909;-69
2023/12/07 09:43:19;;;;;;;15.57;7.57;;;15.90;1.00;;;;;;5008816;28;20393;-69
2023/12/07 09:45:45;;;;;;;14.52;7.00;;;15.60;1.00;;;;;;5008946;28;20430;-69
2023/12/07 09:48:11;;;;;;;19.30;7.40;;;15.60;1.00;;;;;;5009129;28;20583;-69
2023/12/07 09:50:37;;;;;;;16.60;7.33;;;15.10;99.90;;;;;;5009075;28;20453;-68
2023/12/07 09:53:02;;;;;;;13.32;6.95;;;14.60;99.90;;;;;;5008825;28;20816;-69
2023/12/07 09:55:28;;;;;;;13.03;7.07;;;15.20;1.00;;;;;;5008940;28;20495;-69
2023/12/07 09:57:56;;;;;;;15.45;7.35;;;15.40;1.00;;;;;;5008713;28;20432;-69
2023/12/07 10:00:22;;;;;;;14.70;6.93;;;14.30;99.90;;;;;;5008534;28;20389;-69
2023/12/07 10:02:48;;;;;;;15.55;7.05;;;14.40;99.90;;;;;;5008904;28;20404;-69
2023/12/07 10:05:16;;;;;;;15.07;6.90;;;14.90;99.90;;;;;;5008954;28;20745;-69
2023/12/07 10:07:43;;;;;;;14.50;6.45;;;14.80;99.90;;;;;;5009008;28;20420;-69
2023/12/07 10:10:12;;;;;;;14.13;7.00;;;14.80;1.00;;;;;;5008769;28;20380;-69
2023/12/07 10:12:50;;;;;;;12.57;6.53;;;15.30;99.90;;;;;;5009246;28;20754;-69
2023/12/07 10:15:17;;;;;;;14.35;7.15;;;15.30;99.90;;;;;;5004468;28;20445;-69
2023/12/07 10:17:51;;;;;;;13.00;6.30;;;15.30;99.90;;;;;;4989028;28;20400;-69
2023/12/07 10:20:24;;;;;;;15.73;6.65;;;15.40;99.90;;;;;;4988978;28;20441;-69
2023/12/07 10:23:04;;;;;;;13.70;7.03;;;15.10;99.90;;;;;;4989325;28;20402;-69
2023/12/07 10:25:30;;;;;;;13.90;6.73;;;14.90;99.90;;;;;;4989267;28;20422;-69
2023/12/07 10:27:56;;;;;;;12.23;6.35;;;14.80;99.90;;;;;;4988836;28;20921;-70
2023/12/07 10:30:25;;;;;;;15.17;6.93;;;13.90;99.90;;;;;;4988980;28;20399;-69
2023/12/07 10:32:51;;;;;;;13.95;7.15;;;14.20;99.90;;;;;;4988997;28;20485;-70
2023/12/07 10:35:18;;;;;;;15.55;7.05;;;14.40;99.90;;;;;;4992580;28;20399;-68
2023/12/07 10:37:43;;;;;;;15.98;6.10;;;14.90;99.90;;;;;;5005152;28;20409;-67
2023/12/07 10:40:09;;;;;;;15.00;7.70;;;15.00;99.90;;;;;;5012283;28;20423;-68
2023/12/07 10:42:37;;;;;;;14.68;6.88;;;15.40;99.90;;;;;;5012683;28;20392;-68
2023/12/07 10:45:07;;;;;;;12.80;5.70;;;15.30;99.90;;;;;;5012349;28;20428;-68
2023/12/07 10:47:37;;;;;;;12.43;5.90;;;14.50;99.90;;;;;;5011847;28;20554;-68
2023/12/07 10:50:10;;;;;;;12.13;5.18;;;14.70;99.90;;;;;;5011947;28;20393;-68
2023/12/07 10:52:38;;;;;;;16.08;5.55;;;14.00;99.90;;;;;;4994738;28;20424;-70
2023/12/07 10:55:08;;;;;;;11.25;5.25;;;13.20;99.90;;;;;;5012655;28;20381;-71
2023/12/07 10:57:35;;;;;;;12.57;5.13;;;13.40;99.90;;;;;;5012793;28;20448;-70
2023/12/07 11:00:01;;;;;;;11.43;5.25;;;13.10;99.90;;;;;;5012131;28;20822;-71
2023/12/07 11:02:28;;;;;;;12.27;4.57;;;13.10;99.90;;;;;;5011809;28;20488;-71
2023/12/07 11:04:56;;;;;;;12.27;5.10;;;12.80;99.90;;;;;;5011950;28;20457;-71
2023/12/07 11:07:25;;;;;;;14.20;5.18;;;13.10;99.90;;;;;;5011885;28;20455;-68
2023/12/07 11:09:59;;;;;;;12.40;5.72;;;13.60;99.90;;;;;;5011164;28;20403;-69
2023/12/07 11:12:34;;;;;;;12.10;5.53;;;13.30;99.90;;;;;;5011495;28;20460;-69
2023/12/07 11:15:01;;;;;;;12.13;5.45;;;13.50;99.90;;;;;;5011294;28;20404;-69
2023/12/07 11:17:27;;;;;;;12.67;5.60;;;13.40;99.90;;;;;;5011116;28;20396;-70
2023/12/07 11:19:52;;;;;;;13.45;5.70;;;12.30;99.90;;;;;;5011230;28;20476;-70
2023/12/07 11:22:22;;;;;;;14.90;6.77;;;11.30;99.90;;;;;;5011601;28;20397;-68
2023/12/07 11:24:57;;;;;;;11.55;4.88;;;10.10;99.90;;;;;;5011767;28;20397;-69
2023/12/07 11:27:23;;;;;;;12.43;5.20;;;9.70;99.90;;;;;;5011008;28;20781;-69
2023/12/07 11:29:49;;;;;;;11.80;4.40;;;9.60;99.90;;;;;;5010868;28;20475;-68
2023/12/07 11:32:15;;;;;;;11.13;4.00;;;9.50;99.90;;;;;;5010868;28;20881;-68
2023/12/07 11:34:41;;;;;;;10.63;3.92;;;9.30;99.90;;;;;;5010765;28;20916;-68
2023/12/07 11:37:08;;;;;;;9.13;4.18;;;9.10;99.90;;;;;;5011061;28;20412;-69
2023/12/07 11:39:46;;;;;;;10.03;4.07;;;9.00;99.90;;;;;;5011274;28;20760;-68
2023/12/07 11:42:17;;;;;;;9.75;3.60;;;8.70;99.90;;;;;;5010930;28;20451;-70
2023/12/07 11:44:46;;;;;;;8.00;3.00;;;8.40;99.90;;;;;;5010178;28;20393;-69
2023/12/07 11:47:16;;;;;;;11.48;4.00;;;8.40;99.90;;;;;;5010462;28;20730;-69
2023/12/07 11:49:43;;;;;;;8.05;2.90;;;8.50;99.90;;;;;;5010998;28;20404;-70
2023/12/07 11:52:21;;;;;;;10.18;3.72;;;8.20;99.90;;;;;;5010699;28;20392;-69
2023/12/07 11:54:48;;;;;;;9.63;3.00;;;8.10;99.90;;;;;;5010557;28;20385;-69
2023/12/07 11:57:15;;;;;;;8.27;3.00;;;8.40;99.90;;;;;;5010226;28;20396;-68
2023/12/07 11:59:42;;;;;;;7.97;2.70;;;8.50;99.90;;;;;;5010712;28;20471;-69
2023/12/07 12:02:07;;;;;;;7.45;2.50;;;8.50;99.90;;;;;;5010899;28;20451;-70
2023/12/07 12:04:33;;;;;;;7.80;2.40;;;8.50;99.90;;;;;;5010519;28;20897;-70
2023/12/07 12:06:59;;;;;;;10.48;2.60;;;8.40;99.90;;;;;;5010300;28;20913;-70
2023/12/07 12:09:25;;;;;;;6.63;2.28;;;8.10;99.90;;;;;;5010210;28;20397;-70
2023/12/07 12:11:50;;;;;;;7.80;3.00;;;7.90;99.90;;;;;;5010022;28;20389;-70
2023/12/07 12:14:19;;;;;;;6.80;2.40;;;8.20;99.90;;;;;;5007430;28;20457;-70
2023/12/07 12:16:46;;;;;;;7.25;2.47;;;8.00;99.90;;;;;;5001816;28;20389;-70
2023/12/07 12:19:13;;;;;;;10.02;3.03;;;7.90;99.90;;;;;;5010034;28;20405;-70
2023/12/07 12:21:38;;;;;;;9.05;2.38;;;8.00;99.90;;;;;;5010273;28;20911;-70
2023/12/07 12:24:05;;;;;;;7.47;2.40;;;8.00;99.90;;;;;;5010647;28;20487;-70
2023/12/07 12:26:33;;;;;;;8.73;2.33;;;7.90;99.90;;;;;;5009833;28;20808;-70
2023/12/07 12:28:59;;;;;;;6.18;2.10;;;7.90;99.90;;;;;;5009836;28;20432;-70
2023/12/07 12:31:24;;;;;;;9.17;2.30;;;7.90;99.90;;;;;;5009735;28;20500;-70
2023/12/07 12:33:50;;;;;;;8.80;2.30;;;7.90;99.90;;;;;;5010033;28;20393;-70
2023/12/07 12:36:21;;;;;;;7.33;2.30;;;8.00;99.90;;;;;;5009932;28;20405;-70
2023/12/07 12:38:50;;;;;;;7.65;2.78;;;8.10;99.90;;;;;;5009979;28;20738;-71
2023/12/07 12:41:19;;;;;;;7.28;2.50;;;8.10;99.90;;;;;;5010498;28;20450;-70
2023/12/07 12:43:45;;;;;;;8.38;2.40;;;8.10;99.90;;;;;;5009505;28;20392;-70
2023/12/07 12:46:11;;;;;;;6.90;1.87;;;8.20;99.90;;;;;;5009826;28;20397;-70
2023/12/07 12:48:37;;;;;;;8.35;2.38;;;8.10;99.90;;;;;;4999945;28;20445;-70
2023/12/07 12:51:13;;;;;;;7.57;3.10;;;7.90;99.90;;;;;;4990168;28;20922;-70